sensor_id;sensor_type;location;lat;lon;timestamp;P1;durP1;ratioP1;P2;durP2;ratioP2
56419;SDS011;42323;52.170;7.538;2023-02-12T00:02:01;20.85;;;10.60;;
56419;SDS011;42323;52.170;7.538;2023-02-12T00:04:28;21.85;;;10.85;;
56419;SDS011;42323;52.170;7.538;2023-02-12T00:06:54;20.65;;;11.15;;
56419;SDS011;42323;52.170;7.538;2023-02-12T00:09:21;22.80;;;10.18;;
56419;SDS011;42323;52.170;7.538;2023-02-12T00:11:47;20.38;;;9.43;;
56419;SDS011;42323;52.170;7.538;2023-02-12T00:14:13;19.27;;;10.57;;
56419;SDS011;42323;52.170;7.538;2023-02-12T00:16:40;21.13;;;10.45;;
56419;SDS011;42323;52.170;7.538;2023-02-12T00:19:08;20.23;;;10.90;;
56419;SDS011;42323;52.170;7.538;2023-02-12T00:21:35;22.58;;;10.63;;
56419;SDS011;42323;52.170;7.538;2023-02-12T00:24:02;22.80;;;10.32;;
56419;SDS011;42323;52.170;7.538;2023-02-12T00:26:29;25.55;;;11.23;;
56419;SDS011;42323;52.170;7.538;2023-02-12T00:28:56;22.80;;;10.23;;
56419;SDS011;42323;52.170;7.538;2023-02-12T00:31:27;19.27;;;10.70;;
56419;SDS011;42323;52.170;7.538;2023-02-12T00:33:55;23.85;;;11.80;;
56419;SDS011;42323;52.170;7.538;2023-02-12T00:36:23;21.30;;;10.57;;
56419;SDS011;42323;52.170;7.538;2023-02-12T00:38:52;20.13;;;10.73;;
56419;SDS011;42323;52.170;7.538;2023-02-12T00:41:20;23.35;;;11.25;;
56419;SDS011;42323;52.170;7.538;2023-02-12T00:43:48;20.25;;;11.40;;
56419;SDS011;42323;52.170;7.538;2023-02-12T00:46:16;24.48;;;11.02;;
56419;SDS011;42323;52.170;7.538;2023-02-12T00:48:42;21.50;;;11.45;;
56419;SDS011;42323;52.170;7.538;2023-02-12T00:51:09;22.77;;;10.70;;
56419;SDS011;42323;52.170;7.538;2023-02-12T00:53:36;19.45;;;11.13;;
56419;SDS011;42323;52.170;7.538;2023-02-12T00:56:02;23.52;;;10.98;;
56419;SDS011;42323;52.170;7.538;2023-02-12T00:58:29;21.38;;;9.98;;
56419;SDS011;42323;52.170;7.538;2023-02-12T01:00:55;19.35;;;10.13;;
56419;SDS011;42323;52.170;7.538;2023-02-12T01:03:23;19.77;;;10.18;;
56419;SDS011;42323;52.170;7.538;2023-02-12T01:05:50;24.77;;;10.70;;
56419;SDS011;42323;52.170;7.538;2023-02-12T01:08:18;23.25;;;10.60;;
56419;SDS011;42323;52.170;7.538;2023-02-12T01:10:44;18.73;;;9.63;;
56419;SDS011;42323;52.170;7.538;2023-02-12T01:13:23;18.40;;;10.25;;
56419;SDS011;42323;52.170;7.538;2023-02-12T01:15:59;21.17;;;10.98;;
56419;SDS011;42323;52.170;7.538;2023-02-12T01:18:39;20.42;;;10.02;;
56419;SDS011;42323;52.170;7.538;2023-02-12T01:21:12;24.88;;;11.27;;
56419;SDS011;42323;52.170;7.538;2023-02-12T01:23:41;19.15;;;9.77;;
56419;SDS011;42323;52.170;7.538;2023-02-12T01:26:09;21.48;;;10.40;;
56419;SDS011;42323;52.170;7.538;2023-02-12T01:28:40;21.80;;;10.52;;
56419;SDS011;42323;52.170;7.538;2023-02-12T01:31:09;22.17;;;10.82;;
56419;SDS011;42323;52.170;7.538;2023-02-12T01:33:40;20.95;;;9.85;;
56419;SDS011;42323;52.170;7.538;2023-02-12T01:36:07;21.27;;;9.45;;
56419;SDS011;42323;52.170;7.538;2023-02-12T01:38:34;18.08;;;10.20;;
56419;SDS011;42323;52.170;7.538;2023-02-12T01:41:05;24.75;;;11.27;;
56419;SDS011;42323;52.170;7.538;2023-02-12T01:43:36;19.02;;;9.90;;
56419;SDS011;42323;52.170;7.538;2023-02-12T01:46:03;19.13;;;10.20;;
56419;SDS011;42323;52.170;7.538;2023-02-12T01:48:52;18.35;;;9.20;;
56419;SDS011;42323;52.170;7.538;2023-02-12T01:51:18;21.77;;;9.45;;
56419;SDS011;42323;52.170;7.538;2023-02-12T01:53:46;19.48;;;9.65;;
56419;SDS011;42323;52.170;7.538;2023-02-12T01:56:16;19.33;;;9.80;;
56419;SDS011;42323;52.170;7.538;2023-02-12T01:58:43;26.52;;;11.20;;
56419;SDS011;42323;52.170;7.538;2023-02-12T02:01:18;19.02;;;10.35;;
56419;SDS011;42323;52.170;7.538;2023-02-12T02:03:48;19.60;;;9.77;;
56419;SDS011;42323;52.170;7.538;2023-02-12T02:09:28;16.23;;;8.98;;
56419;SDS011;42323;52.170;7.538;2023-02-12T02:11:57;19.33;;;9.98;;
56419;SDS011;42323;52.170;7.538;2023-02-12T02:14:43;17.38;;;8.85;;
56419;SDS011;42323;52.170;7.538;2023-02-12T02:17:23;20.67;;;9.25;;
56419;SDS011;42323;52.170;7.538;2023-02-12T02:20:13;19.15;;;9.88;;
56419;SDS011;42323;52.170;7.538;2023-02-12T02:26:04;21.70;;;9.65;;
56419;SDS011;42323;52.170;7.538;2023-02-12T02:31:45;18.38;;;10.02;;
56419;SDS011;42323;52.170;7.538;2023-02-12T02:34:23;16.88;;;9.65;;
56419;SDS011;42323;52.170;7.538;2023-02-12T02:39:54;20.02;;;10.45;;
56419;SDS011;42323;52.170;7.538;2023-02-12T02:42:38;20.98;;;10.13;;
56419;SDS011;42323;52.170;7.538;2023-02-12T02:48:00;20.73;;;10.48;;
56419;SDS011;42323;52.170;7.538;2023-02-12T02:50:33;19.15;;;10.40;;
56419;SDS011;42323;52.170;7.538;2023-02-12T02:53:21;21.30;;;11.05;;
56419;SDS011;42323;52.170;7.538;2023-02-12T02:55:55;20.98;;;9.77;;
56419;SDS011;42323;52.170;7.538;2023-02-12T03:03:32;19.75;;;10.38;;
56419;SDS011;42323;52.170;7.538;2023-02-12T03:06:26;23.50;;;10.95;;
56419;SDS011;42323;52.170;7.538;2023-02-12T03:09:01;18.77;;;9.48;;
56419;SDS011;42323;52.170;7.538;2023-02-12T03:11:34;21.73;;;10.88;;
56419;SDS011;42323;52.170;7.538;2023-02-12T03:14:02;22.30;;;10.77;;
56419;SDS011;42323;52.170;7.538;2023-02-12T03:16:51;20.23;;;10.13;;
56419;SDS011;42323;52.170;7.538;2023-02-12T03:19:39;22.58;;;10.90;;
56419;SDS011;42323;52.170;7.538;2023-02-12T03:22:11;19.48;;;9.98;;
56419;SDS011;42323;52.170;7.538;2023-02-12T03:29:50;23.35;;;11.45;;
56419;SDS011;42323;52.170;7.538;2023-02-12T03:32:23;21.38;;;9.68;;
56419;SDS011;42323;52.170;7.538;2023-02-12T03:35:00;25.17;;;10.75;;
56419;SDS011;42323;52.170;7.538;2023-02-12T03:37:40;24.20;;;10.57;;
56419;SDS011;42323;52.170;7.538;2023-02-12T03:43:08;20.40;;;10.60;;
56419;SDS011;42323;52.170;7.538;2023-02-12T03:45:51;21.75;;;9.98;;
56419;SDS011;42323;52.170;7.538;2023-02-12T03:53:25;19.17;;;9.80;;
56419;SDS011;42323;52.170;7.538;2023-02-12T03:55:54;17.75;;;8.85;;
56419;SDS011;42323;52.170;7.538;2023-02-12T03:58:28;20.77;;;10.60;;
56419;SDS011;42323;52.170;7.538;2023-02-12T04:00:57;17.55;;;9.75;;
56419;SDS011;42323;52.170;7.538;2023-02-12T04:03:25;20.23;;;10.18;;
56419;SDS011;42323;52.170;7.538;2023-02-12T04:05:52;23.73;;;10.70;;
56419;SDS011;42323;52.170;7.538;2023-02-12T04:08:19;17.90;;;9.75;;
56419;SDS011;42323;52.170;7.538;2023-02-12T04:11:09;18.75;;;9.60;;
56419;SDS011;42323;52.170;7.538;2023-02-12T04:13:41;20.67;;;9.75;;
56419;SDS011;42323;52.170;7.538;2023-02-12T04:16:26;17.02;;;9.60;;
56419;SDS011;42323;52.170;7.538;2023-02-12T04:18:58;21.02;;;10.75;;
56419;SDS011;42323;52.170;7.538;2023-02-12T04:26:35;17.38;;;9.43;;
56419;SDS011;42323;52.170;7.538;2023-02-12T04:29:19;23.33;;;10.38;;
56419;SDS011;42323;52.170;7.538;2023-02-12T04:34:38;17.60;;;8.25;;
56419;SDS011;42323;52.170;7.538;2023-02-12T04:37:31;18.83;;;9.38;;
56419;SDS011;42323;52.170;7.538;2023-02-12T04:40:04;17.92;;;8.93;;
56419;SDS011;42323;52.170;7.538;2023-02-12T04:42:44;20.75;;;10.55;;
56419;SDS011;42323;52.170;7.538;2023-02-12T04:45:18;21.15;;;11.10;;
56419;SDS011;42323;52.170;7.538;2023-02-12T04:47:48;20.98;;;10.82;;
56419;SDS011;42323;52.170;7.538;2023-02-12T04:50:15;19.13;;;10.13;;
56419;SDS011;42323;52.170;7.538;2023-02-12T04:52:41;24.05;;;10.10;;
56419;SDS011;42323;52.170;7.538;2023-02-12T04:55:08;20.42;;;10.35;;
56419;SDS011;42323;52.170;7.538;2023-02-12T04:57:34;19.13;;;9.63;;
56419;SDS011;42323;52.170;7.538;2023-02-12T05:00:02;20.15;;;10.32;;
56419;SDS011;42323;52.170;7.538;2023-02-12T05:02:32;25.80;;;10.50;;
56419;SDS011;42323;52.170;7.538;2023-02-12T05:04:59;23.83;;;10.73;;
56419;SDS011;42323;52.170;7.538;2023-02-12T05:07:26;19.75;;;10.18;;
56419;SDS011;42323;52.170;7.538;2023-02-12T05:09:53;18.25;;;10.18;;
56419;SDS011;42323;52.170;7.538;2023-02-12T05:12:19;20.08;;;10.43;;
56419;SDS011;42323;52.170;7.538;2023-02-12T05:14:46;21.83;;;11.35;;
56419;SDS011;42323;52.170;7.538;2023-02-12T05:17:12;24.27;;;10.90;;
56419;SDS011;42323;52.170;7.538;2023-02-12T05:19:39;21.50;;;10.65;;
56419;SDS011;42323;52.170;7.538;2023-02-12T05:22:05;19.33;;;10.43;;
56419;SDS011;42323;52.170;7.538;2023-02-12T05:24:31;18.88;;;10.30;;
56419;SDS011;42323;52.170;7.538;2023-02-12T05:26:58;25.20;;;11.43;;
56419;SDS011;42323;52.170;7.538;2023-02-12T05:29:24;21.67;;;11.32;;
56419;SDS011;42323;52.170;7.538;2023-02-12T05:31:51;22.40;;;10.90;;
56419;SDS011;42323;52.170;7.538;2023-02-12T05:34:17;20.38;;;10.38;;
56419;SDS011;42323;52.170;7.538;2023-02-12T05:36:45;20.90;;;11.15;;
56419;SDS011;42323;52.170;7.538;2023-02-12T05:39:11;24.48;;;11.20;;
56419;SDS011;42323;52.170;7.538;2023-02-12T05:41:38;22.05;;;10.13;;
56419;SDS011;42323;52.170;7.538;2023-02-12T05:44:08;20.70;;;10.18;;
56419;SDS011;42323;52.170;7.538;2023-02-12T05:46:37;22.80;;;10.95;;
56419;SDS011;42323;52.170;7.538;2023-02-12T05:49:04;21.13;;;10.82;;
56419;SDS011;42323;52.170;7.538;2023-02-12T05:51:30;20.30;;;10.85;;
56419;SDS011;42323;52.170;7.538;2023-02-12T05:54:00;23.75;;;11.07;;
56419;SDS011;42323;52.170;7.538;2023-02-12T05:56:32;23.23;;;11.45;;
56419;SDS011;42323;52.170;7.538;2023-02-12T05:59:04;26.55;;;11.27;;
56419;SDS011;42323;52.170;7.538;2023-02-12T06:01:34;26.88;;;11.48;;
56419;SDS011;42323;52.170;7.538;2023-02-12T06:04:04;24.77;;;10.95;;
56419;SDS011;42323;52.170;7.538;2023-02-12T06:06:32;19.45;;;10.55;;
56419;SDS011;42323;52.170;7.538;2023-02-12T06:08:59;20.83;;;12.00;;
56419;SDS011;42323;52.170;7.538;2023-02-12T06:11:26;24.50;;;10.20;;
56419;SDS011;42323;52.170;7.538;2023-02-12T06:13:53;16.80;;;9.40;;
56419;SDS011;42323;52.170;7.538;2023-02-12T06:16:21;22.48;;;11.07;;
56419;SDS011;42323;52.170;7.538;2023-02-12T06:18:50;22.00;;;10.70;;
56419;SDS011;42323;52.170;7.538;2023-02-12T06:21:20;25.85;;;11.23;;
56419;SDS011;42323;52.170;7.538;2023-02-12T06:23:48;21.85;;;9.95;;
56419;SDS011;42323;52.170;7.538;2023-02-12T06:26:15;24.98;;;12.52;;
56419;SDS011;42323;52.170;7.538;2023-02-12T06:28:42;24.52;;;11.15;;
56419;SDS011;42323;52.170;7.538;2023-02-12T06:31:25;22.00;;;11.07;;
56419;SDS011;42323;52.170;7.538;2023-02-12T06:33:54;23.02;;;11.98;;
56419;SDS011;42323;52.170;7.538;2023-02-12T06:36:24;21.85;;;11.38;;
56419;SDS011;42323;52.170;7.538;2023-02-12T06:38:53;26.30;;;10.88;;
56419;SDS011;42323;52.170;7.538;2023-02-12T06:41:22;24.20;;;10.88;;
56419;SDS011;42323;52.170;7.538;2023-02-12T06:43:49;25.65;;;12.23;;
56419;SDS011;42323;52.170;7.538;2023-02-12T06:46:16;21.65;;;11.52;;
56419;SDS011;42323;52.170;7.538;2023-02-12T06:48:51;26.17;;;11.50;;
56419;SDS011;42323;52.170;7.538;2023-02-12T06:51:20;29.17;;;12.20;;
56419;SDS011;42323;52.170;7.538;2023-02-12T06:53:49;28.80;;;13.05;;
56419;SDS011;42323;52.170;7.538;2023-02-12T06:56:16;29.70;;;13.20;;
56419;SDS011;42323;52.170;7.538;2023-02-12T06:58:44;25.25;;;13.07;;
56419;SDS011;42323;52.170;7.538;2023-02-12T07:01:16;24.70;;;13.00;;
56419;SDS011;42323;52.170;7.538;2023-02-12T07:03:48;32.95;;;13.18;;
56419;SDS011;42323;52.170;7.538;2023-02-12T07:06:16;28.73;;;13.20;;
56419;SDS011;42323;52.170;7.538;2023-02-12T07:08:43;24.80;;;12.50;;
56419;SDS011;42323;52.170;7.538;2023-02-12T07:11:09;26.98;;;12.38;;
56419;SDS011;42323;52.170;7.538;2023-02-12T07:13:36;26.38;;;13.27;;
56419;SDS011;42323;52.170;7.538;2023-02-12T07:16:10;29.23;;;12.38;;
56419;SDS011;42323;52.170;7.538;2023-02-12T07:18:39;24.75;;;12.57;;
56419;SDS011;42323;52.170;7.538;2023-02-12T07:21:06;25.92;;;11.63;;
56419;SDS011;42323;52.170;7.538;2023-02-12T07:23:34;29.77;;;12.25;;
56419;SDS011;42323;52.170;7.538;2023-02-12T07:26:09;24.95;;;11.98;;
56419;SDS011;42323;52.170;7.538;2023-02-12T07:28:37;25.20;;;12.98;;
56419;SDS011;42323;52.170;7.538;2023-02-12T07:31:09;28.15;;;12.70;;
56419;SDS011;42323;52.170;7.538;2023-02-12T07:33:40;29.15;;;12.10;;
56419;SDS011;42323;52.170;7.538;2023-02-12T07:36:08;27.77;;;12.43;;
56419;SDS011;42323;52.170;7.538;2023-02-12T07:38:36;24.08;;;11.88;;
56419;SDS011;42323;52.170;7.538;2023-02-12T07:41:16;27.85;;;11.50;;
56419;SDS011;42323;52.170;7.538;2023-02-12T07:43:45;28.65;;;11.95;;
56419;SDS011;42323;52.170;7.538;2023-02-12T07:46:15;25.23;;;12.75;;
56419;SDS011;42323;52.170;7.538;2023-02-12T07:48:42;25.30;;;12.30;;
56419;SDS011;42323;52.170;7.538;2023-02-12T07:51:10;23.27;;;11.50;;
56419;SDS011;42323;52.170;7.538;2023-02-12T07:53:39;25.60;;;12.10;;
56419;SDS011;42323;52.170;7.538;2023-02-12T07:58:37;24.70;;;12.85;;
56419;SDS011;42323;52.170;7.538;2023-02-12T08:01:21;29.90;;;13.07;;
56419;SDS011;42323;52.170;7.538;2023-02-12T08:03:50;24.52;;;12.18;;
56419;SDS011;42323;52.170;7.538;2023-02-12T08:06:18;25.35;;;12.18;;
56419;SDS011;42323;52.170;7.538;2023-02-12T08:08:52;27.67;;;12.05;;
56419;SDS011;42323;52.170;7.538;2023-02-12T08:11:23;23.98;;;11.93;;
56419;SDS011;42323;52.170;7.538;2023-02-12T08:13:51;29.80;;;12.32;;
56419;SDS011;42323;52.170;7.538;2023-02-12T08:16:19;29.17;;;13.07;;
56419;SDS011;42323;52.170;7.538;2023-02-12T08:18:48;26.83;;;12.60;;
56419;SDS011;42323;52.170;7.538;2023-02-12T08:21:15;25.25;;;12.55;;
56419;SDS011;42323;52.170;7.538;2023-02-12T08:23:44;24.92;;;11.50;;
56419;SDS011;42323;52.170;7.538;2023-02-12T08:26:15;24.58;;;11.95;;
56419;SDS011;42323;52.170;7.538;2023-02-12T08:28:48;29.88;;;12.40;;
56419;SDS011;42323;52.170;7.538;2023-02-12T08:31:20;24.67;;;12.65;;
56419;SDS011;42323;52.170;7.538;2023-02-12T08:33:52;28.00;;;12.10;;
56419;SDS011;42323;52.170;7.538;2023-02-12T08:36:21;33.38;;;13.27;;
56419;SDS011;42323;52.170;7.538;2023-02-12T08:38:49;25.38;;;12.18;;
56419;SDS011;42323;52.170;7.538;2023-02-12T08:41:17;23.83;;;12.30;;
56419;SDS011;42323;52.170;7.538;2023-02-12T08:43:48;28.17;;;12.10;;
56419;SDS011;42323;52.170;7.538;2023-02-12T08:46:17;26.33;;;12.05;;
56419;SDS011;42323;52.170;7.538;2023-02-12T08:48:50;23.25;;;11.93;;
56419;SDS011;42323;52.170;7.538;2023-02-12T08:51:19;30.40;;;12.55;;
56419;SDS011;42323;52.170;7.538;2023-02-12T08:53:50;25.65;;;12.00;;
56419;SDS011;42323;52.170;7.538;2023-02-12T08:56:18;22.63;;;11.77;;
56419;SDS011;42323;52.170;7.538;2023-02-12T08:58:45;23.17;;;11.95;;
56419;SDS011;42323;52.170;7.538;2023-02-12T09:01:16;24.05;;;11.48;;
56419;SDS011;42323;52.170;7.538;2023-02-12T09:03:44;26.50;;;11.70;;
56419;SDS011;42323;52.170;7.538;2023-02-12T09:06:11;21.40;;;11.23;;
56419;SDS011;42323;52.170;7.538;2023-02-12T09:08:38;25.13;;;12.27;;
56419;SDS011;42323;52.170;7.538;2023-02-12T09:11:06;25.77;;;11.13;;
56419;SDS011;42323;52.170;7.538;2023-02-12T09:13:34;22.02;;;10.25;;
56419;SDS011;42323;52.170;7.538;2023-02-12T09:16:02;22.85;;;10.60;;
56419;SDS011;42323;52.170;7.538;2023-02-12T09:18:29;24.58;;;12.45;;
56419;SDS011;42323;52.170;7.538;2023-02-12T09:21:00;24.25;;;12.23;;
56419;SDS011;42323;52.170;7.538;2023-02-12T09:23:29;19.10;;;10.57;;
56419;SDS011;42323;52.170;7.538;2023-02-12T09:25:56;29.80;;;11.52;;
56419;SDS011;42323;52.170;7.538;2023-02-12T09:28:23;21.08;;;10.05;;
56419;SDS011;42323;52.170;7.538;2023-02-12T09:30:50;21.58;;;10.68;;
56419;SDS011;42323;52.170;7.538;2023-02-12T09:33:17;21.73;;;9.98;;
56419;SDS011;42323;52.170;7.538;2023-02-12T09:35:43;21.75;;;9.63;;
56419;SDS011;42323;52.170;7.538;2023-02-12T09:38:10;21.33;;;10.60;;
56419;SDS011;42323;52.170;7.538;2023-02-12T09:46:21;20.33;;;9.85;;
56419;SDS011;42323;52.170;7.538;2023-02-12T09:49:06;19.17;;;10.13;;
56419;SDS011;42323;52.170;7.538;2023-02-12T09:51:48;18.27;;;8.90;;
56419;SDS011;42323;52.170;7.538;2023-02-12T09:54:22;19.38;;;8.55;;
56419;SDS011;42323;52.170;7.538;2023-02-12T09:56:55;19.48;;;9.50;;
56419;SDS011;42323;52.170;7.538;2023-02-12T09:59:33;17.10;;;8.73;;
56419;SDS011;42323;52.170;7.538;2023-02-12T10:02:17;18.75;;;8.50;;
56419;SDS011;42323;52.170;7.538;2023-02-12T10:04:45;17.55;;;8.52;;
56419;SDS011;42323;52.170;7.538;2023-02-12T10:13:03;15.60;;;8.48;;
56419;SDS011;42323;52.170;7.538;2023-02-12T10:26:00;11.27;;;6.80;;
56419;SDS011;42323;52.170;7.538;2023-02-12T10:28:40;16.67;;;7.20;;
56419;SDS011;42323;52.170;7.538;2023-02-12T10:31:43;15.20;;;7.40;;
56419;SDS011;42323;52.170;7.538;2023-02-12T10:36:50;13.73;;;6.60;;
56419;SDS011;42323;52.170;7.538;2023-02-12T10:42:03;14.90;;;8.15;;
56419;SDS011;42323;52.170;7.538;2023-02-12T10:44:37;11.82;;;6.63;;
56419;SDS011;42323;52.170;7.538;2023-02-12T10:47:03;12.27;;;6.20;;
56419;SDS011;42323;52.170;7.538;2023-02-12T10:49:30;8.85;;;5.90;;
56419;SDS011;42323;52.170;7.538;2023-02-12T10:52:01;14.43;;;6.03;;
56419;SDS011;42323;52.170;7.538;2023-02-12T10:54:36;14.60;;;6.38;;
56419;SDS011;42323;52.170;7.538;2023-02-12T10:57:05;9.00;;;4.85;;
56419;SDS011;42323;52.170;7.538;2023-02-12T10:59:35;10.30;;;5.45;;
56419;SDS011;42323;52.170;7.538;2023-02-12T11:02:01;9.98;;;5.65;;
56419;SDS011;42323;52.170;7.538;2023-02-12T11:04:30;11.93;;;5.55;;
56419;SDS011;42323;52.170;7.538;2023-02-12T11:07:02;10.40;;;5.30;;
56419;SDS011;42323;52.170;7.538;2023-02-12T11:09:34;12.70;;;5.50;;
56419;SDS011;42323;52.170;7.538;2023-02-12T11:15:19;9.88;;;5.13;;
56419;SDS011;42323;52.170;7.538;2023-02-12T11:17:55;10.88;;;6.18;;
56419;SDS011;42323;52.170;7.538;2023-02-12T11:20:58;10.52;;;6.20;;
56419;SDS011;42323;52.170;7.538;2023-02-12T11:23:27;10.05;;;5.13;;
56419;SDS011;42323;52.170;7.538;2023-02-12T11:32:00;12.18;;;4.90;;
56419;SDS011;42323;52.170;7.538;2023-02-12T11:34:34;9.63;;;5.18;;
56419;SDS011;42323;52.170;7.538;2023-02-12T11:37:03;9.65;;;4.97;;
56419;SDS011;42323;52.170;7.538;2023-02-12T11:39:46;9.18;;;5.22;;
56419;SDS011;42323;52.170;7.538;2023-02-12T11:42:19;8.07;;;5.03;;
56419;SDS011;42323;52.170;7.538;2023-02-12T11:47:21;9.73;;;5.38;;
56419;SDS011;42323;52.170;7.538;2023-02-12T11:50:03;8.73;;;5.03;;
56419;SDS011;42323;52.170;7.538;2023-02-12T11:52:31;9.80;;;5.15;;
56419;SDS011;42323;52.170;7.538;2023-02-12T11:55:05;10.43;;;4.57;;
56419;SDS011;42323;52.170;7.538;2023-02-12T11:57:46;8.45;;;4.78;;
56419;SDS011;42323;52.170;7.538;2023-02-12T12:03:03;9.90;;;5.18;;
56419;SDS011;42323;52.170;7.538;2023-02-12T12:05:34;10.30;;;5.20;;
56419;SDS011;42323;52.170;7.538;2023-02-12T12:08:06;8.98;;;4.32;;
56419;SDS011;42323;52.170;7.538;2023-02-12T12:10:49;7.82;;;4.82;;
56419;SDS011;42323;52.170;7.538;2023-02-12T12:13:29;9.30;;;4.00;;
56419;SDS011;42323;52.170;7.538;2023-02-12T12:16:11;7.72;;;4.50;;
56419;SDS011;42323;52.170;7.538;2023-02-12T12:19:04;6.43;;;3.97;;
56419;SDS011;42323;52.170;7.538;2023-02-12T12:25:07;7.32;;;4.10;;
56419;SDS011;42323;52.170;7.538;2023-02-12T12:27:50;9.88;;;3.78;;
56419;SDS011;42323;52.170;7.538;2023-02-12T12:30:50;5.45;;;3.28;;
56419;SDS011;42323;52.170;7.538;2023-02-12T12:42:12;5.82;;;3.42;;
56419;SDS011;42323;52.170;7.538;2023-02-12T12:45:14;6.97;;;3.85;;
56419;SDS011;42323;52.170;7.538;2023-02-12T12:53:22;8.68;;;3.45;;
56419;SDS011;42323;52.170;7.538;2023-02-12T13:00:01;7.55;;;2.95;;
56419;SDS011;42323;52.170;7.538;2023-02-12T13:07:48;5.47;;;3.25;;
56419;SDS011;42323;52.170;7.538;2023-02-12T13:10:33;9.70;;;3.80;;
56419;SDS011;42323;52.170;7.538;2023-02-12T13:13:36;5.50;;;2.85;;
56419;SDS011;42323;52.170;7.538;2023-02-12T13:16:10;8.25;;;3.17;;
56419;SDS011;42323;52.170;7.538;2023-02-12T13:24:21;6.78;;;3.53;;
56419;SDS011;42323;52.170;7.538;2023-02-12T13:26:58;8.55;;;3.70;;
56419;SDS011;42323;52.170;7.538;2023-02-12T13:29:34;5.93;;;3.10;;
56419;SDS011;42323;52.170;7.538;2023-02-12T13:32:25;6.30;;;3.33;;
56419;SDS011;42323;52.170;7.538;2023-02-12T13:34:55;4.57;;;2.80;;
56419;SDS011;42323;52.170;7.538;2023-02-12T13:40:05;6.18;;;2.88;;
56419;SDS011;42323;52.170;7.538;2023-02-12T13:48:17;4.28;;;3.22;;
56419;SDS011;42323;52.170;7.538;2023-02-12T13:50:56;6.15;;;3.42;;
56419;SDS011;42323;52.170;7.538;2023-02-12T13:56:41;3.92;;;2.35;;
56419;SDS011;42323;52.170;7.538;2023-02-12T14:06:12;4.63;;;2.67;;
56419;SDS011;42323;52.170;7.538;2023-02-12T14:08:45;5.95;;;3.03;;
56419;SDS011;42323;52.170;7.538;2023-02-12T15:26:23;5.82;;;3.50;;
56419;SDS011;42323;52.170;7.538;2023-02-12T15:33:50;10.70;;;4.20;;
56419;SDS011;42323;52.170;7.538;2023-02-12T15:36:50;7.97;;;4.68;;
56419;SDS011;42323;52.170;7.538;2023-02-12T15:47:14;8.43;;;4.45;;
56419;SDS011;42323;52.170;7.538;2023-02-12T15:53:49;11.63;;;5.55;;
56419;SDS011;42323;52.170;7.538;2023-02-12T15:56:53;7.43;;;4.80;;
56419;SDS011;42323;52.170;7.538;2023-02-12T16:02:59;9.73;;;4.28;;
56419;SDS011;42323;52.170;7.538;2023-02-12T16:05:37;5.82;;;3.67;;
56419;SDS011;42323;52.170;7.538;2023-02-12T16:08:12;6.13;;;3.90;;
56419;SDS011;42323;52.170;7.538;2023-02-12T16:14:40;5.82;;;3.25;;
56419;SDS011;42323;52.170;7.538;2023-02-12T16:22:54;7.30;;;3.63;;
56419;SDS011;42323;52.170;7.538;2023-02-12T16:25:34;5.78;;;3.97;;
56419;SDS011;42323;52.170;7.538;2023-02-12T16:28:15;8.73;;;4.68;;
56419;SDS011;42323;52.170;7.538;2023-02-12T16:31:16;8.48;;;4.05;;
56419;SDS011;42323;52.170;7.538;2023-02-12T16:34:24;6.72;;;4.28;;
56419;SDS011;42323;52.170;7.538;2023-02-12T16:55:52;10.63;;;6.07;;
56419;SDS011;42323;52.170;7.538;2023-02-12T17:03:00;9.63;;;5.70;;
56419;SDS011;42323;52.170;7.538;2023-02-12T18:07:21;12.52;;;8.07;;
56419;SDS011;42323;52.170;7.538;2023-02-12T18:20:43;15.30;;;8.20;;
56419;SDS011;42323;52.170;7.538;2023-02-12T18:50:09;11.07;;;5.47;;
56419;SDS011;42323;52.170;7.538;2023-02-12T20:16:13;14.38;;;9.10;;
56419;SDS011;42323;52.170;7.538;2023-02-12T20:18:46;17.02;;;9.90;;
56419;SDS011;42323;52.170;7.538;2023-02-12T20:21:16;19.30;;;10.45;;
56419;SDS011;42323;52.170;7.538;2023-02-12T20:23:54;16.55;;;9.63;;
56419;SDS011;42323;52.170;7.538;2023-02-12T20:26:21;17.50;;;10.52;;
56419;SDS011;42323;52.170;7.538;2023-02-12T20:28:57;17.83;;;9.88;;
56419;SDS011;42323;52.170;7.538;2023-02-12T20:31:26;17.88;;;10.68;;
56419;SDS011;42323;52.170;7.538;2023-02-12T20:34:07;17.08;;;10.95;;
56419;SDS011;42323;52.170;7.538;2023-02-12T20:36:39;21.50;;;12.75;;
56419;SDS011;42323;52.170;7.538;2023-02-12T20:39:10;19.58;;;13.05;;
56419;SDS011;42323;52.170;7.538;2023-02-12T20:41:40;17.05;;;11.98;;
56419;SDS011;42323;52.170;7.538;2023-02-12T20:44:13;18.48;;;11.30;;
56419;SDS011;42323;52.170;7.538;2023-02-12T20:46:44;24.88;;;13.18;;
56419;SDS011;42323;52.170;7.538;2023-02-12T20:49:13;20.40;;;12.52;;
56419;SDS011;42323;52.170;7.538;2023-02-12T20:51:41;25.08;;;14.05;;
56419;SDS011;42323;52.170;7.538;2023-02-12T20:54:09;21.73;;;13.52;;
56419;SDS011;42323;52.170;7.538;2023-02-12T20:56:36;25.02;;;14.07;;
56419;SDS011;42323;52.170;7.538;2023-02-12T20:59:03;22.23;;;12.57;;
56419;SDS011;42323;52.170;7.538;2023-02-12T21:01:32;24.25;;;13.27;;
56419;SDS011;42323;52.170;7.538;2023-02-12T21:04:04;23.60;;;13.88;;
56419;SDS011;42323;52.170;7.538;2023-02-12T21:06:36;23.23;;;14.43;;
56419;SDS011;42323;52.170;7.538;2023-02-12T21:09:05;22.05;;;13.65;;
56419;SDS011;42323;52.170;7.538;2023-02-12T21:11:32;24.02;;;13.73;;
56419;SDS011;42323;52.170;7.538;2023-02-12T21:13:59;23.08;;;13.93;;
56419;SDS011;42323;52.170;7.538;2023-02-12T21:16:45;22.95;;;13.48;;
56419;SDS011;42323;52.170;7.538;2023-02-12T21:19:12;22.25;;;12.55;;
56419;SDS011;42323;52.170;7.538;2023-02-12T21:21:39;19.88;;;11.27;;
56419;SDS011;42323;52.170;7.538;2023-02-12T21:24:07;23.40;;;12.25;;
56419;SDS011;42323;52.170;7.538;2023-02-12T21:26:36;18.13;;;10.52;;
56419;SDS011;42323;52.170;7.538;2023-02-12T21:29:03;18.92;;;11.75;;
56419;SDS011;42323;52.170;7.538;2023-02-12T21:31:34;18.98;;;10.98;;
56419;SDS011;42323;52.170;7.538;2023-02-12T21:34:03;16.30;;;9.70;;
56419;SDS011;42323;52.170;7.538;2023-02-12T21:36:36;18.50;;;9.75;;
56419;SDS011;42323;52.170;7.538;2023-02-12T21:39:04;15.45;;;9.43;;
56419;SDS011;42323;52.170;7.538;2023-02-12T21:41:33;15.63;;;9.45;;
56419;SDS011;42323;52.170;7.538;2023-02-12T21:44:02;16.38;;;9.35;;
56419;SDS011;42323;52.170;7.538;2023-02-12T21:46:32;17.63;;;9.32;;
56419;SDS011;42323;52.170;7.538;2023-02-12T21:49:00;13.95;;;8.45;;
56419;SDS011;42323;52.170;7.538;2023-02-12T21:51:27;13.15;;;8.20;;
56419;SDS011;42323;52.170;7.538;2023-02-12T21:53:58;11.48;;;7.57;;
56419;SDS011;42323;52.170;7.538;2023-02-12T21:56:27;14.27;;;8.20;;
56419;SDS011;42323;52.170;7.538;2023-02-12T21:58:54;13.93;;;8.30;;
56419;SDS011;42323;52.170;7.538;2023-02-12T22:01:23;13.85;;;8.02;;
56419;SDS011;42323;52.170;7.538;2023-02-12T22:03:53;13.20;;;7.85;;
56419;SDS011;42323;52.170;7.538;2023-02-12T22:06:20;14.90;;;8.20;;
56419;SDS011;42323;52.170;7.538;2023-02-12T22:08:48;18.63;;;8.30;;
56419;SDS011;42323;52.170;7.538;2023-02-12T22:11:16;14.82;;;8.85;;
56419;SDS011;42323;52.170;7.538;2023-02-12T22:13:43;14.00;;;8.30;;
56419;SDS011;42323;52.170;7.538;2023-02-12T22:16:20;16.10;;;7.57;;
56419;SDS011;42323;52.170;7.538;2023-02-12T22:18:50;11.25;;;7.70;;
56419;SDS011;42323;52.170;7.538;2023-02-12T22:21:20;12.18;;;7.40;;
56419;SDS011;42323;52.170;7.538;2023-02-12T22:23:49;18.30;;;9.35;;
56419;SDS011;42323;52.170;7.538;2023-02-12T22:26:19;12.20;;;7.72;;